Time;durP1;ratioP1;P1;durP2;ratioP2;P2;SDS_P1;SDS_P2;PMS_P1;PMS_P2;Temp;Humidity;BMP_temperature;BMP_pressure;BME280_temperature;BME280_humidity;BME280_pressure;Samples;Min_cycle;Max_cycle;Signal;HPM_P1;HPM_P2
2024/03/18 00:01:23;;;;;;;;;28.00;27.00;;;;;15.62;96.00;101155.84;5078919;27;46489;-68
2024/03/18 00:03:48;;;;;;;;;31.75;29.25;;;;;15.73;95.92;101169.63;5076596;27;45326;-68
2024/03/18 00:06:14;;;;;;;;;32.50;29.25;;;;;15.68;96.14;101160.03;5076731;27;45516;-68
2024/03/18 00:08:39;;;;;;;;;27.00;26.00;;;;;15.69;95.98;101168.03;5075932;27;45437;-68
2024/03/18 00:11:04;;;;;;;;;28.75;26.75;;;;;15.68;95.83;101173.50;5078842;27;45432;-68
2024/03/18 00:13:30;;;;;;;;;29.25;29.25;;;;;15.60;95.98;101148.75;5071476;27;45389;-68
2024/03/18 00:15:55;;;;;;;;;30.50;28.00;;;;;15.72;95.97;101158.97;5078810;27;45349;-68
2024/03/18 00:18:20;;;;;;;;;23.75;22.75;;;;;15.70;95.91;101159.03;5079000;28;45518;-68
2024/03/18 00:20:46;;;;;;;;;29.25;27.25;;;;;15.74;95.83;101167.84;5078887;27;46267;-68
2024/03/18 00:23:11;;;;;;;;;30.75;26.00;;;;;15.73;95.77;101158.88;5081585;28;45374;-68
2024/03/18 00:25:36;;;;;;;;;27.75;25.75;;;;;15.72;95.89;101149.06;5085560;27;46688;-68
2024/03/18 00:28:02;;;;;;;;;28.50;25.00;;;;;15.66;96.21;101140.41;5085596;27;45755;-68
2024/03/18 00:30:27;;;;;;;;;28.25;27.25;;;;;15.64;96.01;101136.94;5083622;28;45953;-68
2024/03/18 00:32:52;;;;;;;;;27.00;25.50;;;;;15.74;95.91;101159.75;5084508;28;45418;-68
2024/03/18 00:35:19;;;;;;;;;30.75;28.75;;;;;15.75;95.99;101158.78;5085640;27;45432;-67
2024/03/18 00:37:44;;;;;;;;;28.00;26.50;;;;;15.76;95.84;101162.41;5084523;27;45333;-68
2024/03/18 00:40:10;;;;;;;;;28.50;25.50;;;;;15.76;95.84;101165.97;5085384;28;46337;-68
2024/03/18 00:42:36;;;;;;;;;30.25;26.50;;;;;15.68;95.80;101143.91;5085805;27;45336;-68
2024/03/18 00:45:02;;;;;;;;;26.25;25.25;;;;;15.74;96.01;101154.38;5085488;27;45393;-68
2024/03/18 00:47:28;;;;;;;;;27.75;27.75;;;;;15.61;95.99;101134.38;5076939;27;45628;-68
2024/03/18 00:49:54;;;;;;;;;31.75;27.75;;;;;15.74;95.84;101149.84;5085430;27;45853;-68
2024/03/18 00:52:19;;;;;;;;;26.00;23.75;;;;;15.70;96.30;101144.69;5085609;27;45567;-68
2024/03/18 00:54:44;;;;;;;;;22.50;22.50;;;;;15.71;96.10;101143.75;5085514;27;45414;-68
2024/03/18 00:57:10;;;;;;;;;26.00;23.50;;;;;15.73;95.96;101153.47;5085523;27;45353;-68
2024/03/18 00:59:36;;;;;;;;;30.00;29.00;;;;;15.67;96.01;101142.13;5090403;27;46228;-68
2024/03/18 01:02:01;;;;;;;;;29.00;27.75;;;;;15.58;96.14;101121.91;5085246;28;45435;-68
2024/03/18 01:04:27;;;;;;;;;31.75;30.75;;;;;15.73;96.12;101148.09;5083657;27;46034;-68
2024/03/18 01:06:52;;;;;;;;;27.25;25.75;;;;;15.75;95.80;101137.25;5085046;28;53000;-67
2024/03/18 01:09:17;;;;;;;;;31.50;28.00;;;;;15.74;95.90;101141.78;5076781;28;53760;-68
2024/03/18 01:11:43;;;;;;;;;32.50;30.25;;;;;15.73;95.91;101140.03;5085254;27;45373;-67
2024/03/18 01:14:08;;;;;;;;;27.00;26.00;;;;;15.74;95.88;101143.63;5084465;27;45353;-68
2024/03/18 01:16:34;;;;;;;;;32.75;30.00;;;;;15.74;96.10;101146.31;5085022;27;45361;-68
2024/03/18 01:19:00;;;;;;;;;31.75;30.50;;;;;15.73;96.00;101140.03;5083584;27;45650;-68
2024/03/18 01:21:25;;;;;;;;;33.25;30.00;;;;;15.67;95.77;101129.56;5084241;27;45598;-68
2024/03/18 01:23:51;;;;;;;;;34.25;31.50;;;;;15.66;95.56;101127.81;5084912;27;45299;-68
2024/03/18 01:26:18;;;;;;;;;28.50;28.50;;;;;15.70;96.15;101126.75;5082904;28;54907;-68
2024/03/18 01:28:43;;;;;;;;;32.75;30.50;;;;;15.70;96.03;101128.53;5084951;28;46311;-68
2024/03/18 01:31:09;;;;;;;;;29.00;28.00;;;;;15.69;95.96;101122.28;5084909;27;45443;-68
2024/03/18 01:33:34;;;;;;;;;35.25;32.25;;;;;15.69;96.17;101122.28;5085157;27;45456;-67
2024/03/18 01:36:00;;;;;;;;;30.75;29.75;;;;;15.69;96.05;101125.00;5080764;27;45415;-68
2024/03/18 01:38:28;;;;;;;;;36.75;32.50;;;;;15.67;95.99;101117.91;5079484;27;46022;-67
2024/03/18 01:40:54;;;;;;;;;39.00;34.00;;;;;15.61;95.91;101112.84;5081624;28;45700;-67
2024/03/18 01:43:19;;;;;;;;;50.50;41.25;;;;;15.67;95.90;101112.53;5081508;27;45556;-68
2024/03/18 01:45:46;;;;;;;;;50.50;41.00;;;;;15.66;95.95;101113.50;5080138;28;45334;-67
2024/03/18 01:48:12;;;;;;;;;52.00;43.25;;;;;15.57;96.08;101094.16;5081213;27;45493;-67
2024/03/18 01:50:41;;;;;;;;;53.00;43.50;;;;;15.54;95.97;101083.53;5081581;27;45421;-68
2024/03/18 01:53:06;;;;;;;;;49.00;40.50;;;;;15.57;95.92;101088.78;5081332;27;45444;-67
2024/03/18 01:55:32;;;;;;;;;39.75;36.00;;;;;15.64;96.02;101091.19;5067627;27;45377;-68
2024/03/18 01:57:58;;;;;;;;;36.25;33.50;;;;;15.57;95.91;101078.00;5080895;27;46146;-68
2024/03/18 02:00:32;;;;;;;;;30.00;27.50;;;;;15.59;96.09;101071.69;5081286;28;45380;-68
2024/03/18 02:02:58;;;;;;;;;33.50;27.75;;;;;15.59;96.28;101075.25;5081289;27;45426;-68
2024/03/18 02:05:23;;;;;;;;;31.00;28.50;;;;;15.53;96.12;101062.06;5080993;27;45393;-67
2024/03/18 02:07:48;;;;;;;;;31.50;30.50;;;;;15.50;96.08;101059.53;5078605;28;47491;-67
2024/03/18 02:10:14;;;;;;;;;29.75;28.75;;;;;15.57;95.97;101075.31;5073374;27;58512;-67
2024/03/18 02:12:39;;;;;;;;;26.50;24.25;;;;;15.60;96.06;101076.13;5078229;27;45472;-68
2024/03/18 02:15:05;;;;;;;;;29.75;26.00;;;;;15.57;96.12;101077.16;5080990;28;49356;-68
2024/03/18 02:17:31;;;;;;;;;29.25;28.25;;;;;15.55;96.12;101069.16;5080515;27;46276;-68
2024/03/18 02:19:56;;;;;;;;;29.00;27.25;;;;;15.54;96.11;101072.78;5080606;28;55446;-67
2024/03/18 02:22:22;;;;;;;;;28.25;27.00;;;;;15.57;96.19;101074.47;5079518;27;45335;-67
2024/03/18 02:24:47;;;;;;;;;27.25;26.25;;;;;15.52;96.27;101066.59;5080589;27;45244;-68
2024/03/18 02:27:13;;;;;;;;;28.75;27.00;;;;;15.52;96.15;101069.28;5080167;27;55703;-68
2024/03/18 02:29:39;;;;;;;;;28.00;25.75;;;;;15.50;95.98;101071.19;5080137;27;45580;-67
2024/03/18 02:32:05;;;;;;;;;24.50;21.25;;;;;15.51;96.33;101069.34;5080814;27;45446;-68
2024/03/18 02:34:31;;;;;;;;;17.00;17.00;;;;;15.46;96.05;101063.31;5080780;27;45481;-67
2024/03/18 02:36:57;;;;;;;;;19.75;19.75;;;;;15.57;96.20;101077.16;5079452;27;46087;-67
2024/03/18 02:39:23;;;;;;;;;16.00;16.00;;;;;15.57;96.23;101074.47;5079564;27;45520;-68
2024/03/18 02:41:49;;;;;;;;;15.00;15.00;;;;;15.57;96.33;101061.00;5080647;28;45439;-67
2024/03/18 02:44:14;;;;;;;;;13.25;13.00;;;;;15.58;96.31;101057.34;5080565;27;45674;-68
2024/03/18 02:46:39;;;;;;;;;13.75;12.25;;;;;15.60;96.20;101068.03;5074079;27;47098;-68
2024/03/18 02:49:05;;;;;;;;;9.75;8.25;;;;;15.59;96.26;101069.00;5080656;27;45294;-67
2024/03/18 02:51:30;;;;;;;;;8.25;8.00;;;;;15.58;96.36;101057.34;5080576;28;45331;-68
2024/03/18 02:53:56;;;;;;;;;10.00;10.00;;;;;15.57;96.11;101059.19;5080354;28;45310;-68
2024/03/18 02:56:21;;;;;;;;;11.00;10.25;;;;;15.62;96.19;101074.22;5080214;28;45283;-67
2024/03/18 02:58:46;;;;;;;;;10.25;8.50;;;;;15.59;96.48;101077.94;5080169;27;45306;-68
2024/03/18 03:01:12;;;;;;;;;8.25;8.25;;;;;15.61;96.16;101084.13;5078900;28;46274;-67
2024/03/18 03:03:37;;;;;;;;;11.75;10.50;;;;;15.63;96.41;101075.97;5069297;28;45272;-67
2024/03/18 03:06:04;;;;;;;;;8.75;8.25;;;;;15.58;96.27;101073.50;5074491;28;45313;-67
2024/03/18 03:08:30;;;;;;;;;10.50;9.50;;;;;15.61;96.77;101086.81;5079003;28;45663;-67
2024/03/18 03:10:55;;;;;;;;;9.00;9.00;;;;;15.53;96.43;101068.31;5080420;27;45566;-67
2024/03/18 03:13:21;;;;;;;;;7.00;7.00;;;;;15.63;96.38;101082.22;5080251;28;45566;-68
2024/03/18 03:15:46;;;;;;;;;8.75;7.75;;;;;15.65;96.32;101074.06;5079803;27;45498;-68
2024/03/18 03:18:13;;;;;;;;;10.00;9.75;;;;;15.62;96.29;101069.72;5079555;28;51673;-68
2024/03/18 03:20:39;;;;;;;;;12.00;9.75;;;;;15.66;96.52;101070.44;5076485;28;45474;-67
2024/03/18 03:23:04;;;;;;;;;11.75;11.75;;;;;15.61;96.26;101064.41;5079917;27;45526;-68
2024/03/18 03:25:30;;;;;;;;;8.00;7.00;;;;;15.56;96.28;101048.47;5077634;27;45456;-67
2024/03/18 03:27:58;;;;;;;;;9.75;9.00;;;;;15.66;96.27;101068.63;5078918;27;45347;-67
2024/03/18 03:30:24;;;;;;;;;7.25;7.25;;;;;15.63;96.27;101054.44;5078486;27;45287;-67
2024/03/18 03:32:50;;;;;;;;;9.75;8.25;;;;;15.60;96.31;101051.91;5079177;27;45488;-67
2024/03/18 03:35:16;;;;;;;;;8.00;8.00;;;;;15.62;96.27;101067.03;5077764;27;46922;-67
2024/03/18 03:37:42;;;;;;;;;8.25;8.00;;;;;15.57;96.30;101066.38;5077868;27;45472;-67
2024/03/18 03:40:08;;;;;;;;;4.75;4.25;;;;;15.62;96.43;101079.59;5078726;27;45349;-67
2024/03/18 03:42:33;;;;;;;;;11.25;10.75;;;;;15.54;96.36;101075.47;5079715;27;45457;-67
2024/03/18 03:44:58;;;;;;;;;11.00;11.00;;;;;15.55;96.33;101093.38;5078708;27;46345;-67
2024/03/18 03:47:24;;;;;;;;;11.25;11.00;;;;;15.55;96.67;101092.47;5078444;27;52180;-67
2024/03/18 03:49:50;;;;;;;;;12.00;12.00;;;;;15.53;96.61;101087.16;5077770;27;45483;-67
2024/03/18 03:52:15;;;;;;;;;11.00;11.00;;;;;15.49;96.48;101093.66;5079741;27;45332;-68
2024/03/18 03:54:40;;;;;;;;;10.00;10.00;;;;;15.41;96.69;101076.13;5076868;27;45398;-67
2024/03/18 03:57:06;;;;;;;;;10.00;9.00;;;;;15.49;96.77;101104.41;5078180;27;48176;-67
2024/03/18 03:59:31;;;;;;;;;9.25;9.25;;;;;15.51;96.65;101107.88;5077863;27;45466;-67
2024/03/18 04:01:56;;;;;;;;;8.50;7.50;;;;;15.49;96.72;101112.47;5078535;28;58846;-67
2024/03/18 04:04:23;;;;;;;;;7.00;6.25;;;;;15.49;96.79;101125.94;5078469;27;46003;-67
2024/03/18 04:06:48;;;;;;;;;8.00;8.00;;;;;15.48;96.71;101112.53;5078072;27;45441;-67
2024/03/18 04:09:15;;;;;;;;;8.25;7.25;;;;;15.52;96.84;101131.16;5077946;27;45488;-67
2024/03/18 04:11:40;;;;;;;;;8.75;6.25;;;;;15.53;96.71;101129.34;5078593;27;45547;-67
2024/03/18 04:14:06;;;;;;;;;7.25;7.25;;;;;15.51;96.75;101133.94;5079000;27;45361;-67
2024/03/18 04:16:31;;;;;;;;;7.00;7.00;;;;;15.50;96.85;101132.16;5079040;27;45348;-67
2024/03/18 04:18:57;;;;;;;;;8.00;8.00;;;;;15.46;96.77;101123.38;5077953;28;45397;-67
2024/03/18 04:21:22;;;;;;;;;7.00;7.00;;;;;15.41;96.62;101114.66;5079217;28;45445;-67
2024/03/18 04:23:47;;;;;;;;;7.25;7.25;;;;;15.49;96.73;101123.25;5078667;28;45407;-67
2024/03/18 04:26:13;;;;;;;;;9.75;9.75;;;;;15.53;96.67;101134.72;5077462;28;45449;-67
2024/03/18 04:28:38;;;;;;;;;10.00;9.75;;;;;15.53;96.69;101140.97;5073724;28;45544;-67
2024/03/18 04:31:11;;;;;;;;;9.50;8.00;;;;;15.42;96.64;101124.47;5078899;27;45319;-67
2024/03/18 04:33:36;;;;;;;;;9.50;8.00;;;;;15.49;96.42;101144.75;5078876;27;46165;-67
2024/03/18 04:36:02;;;;;;;;;8.50;8.50;;;;;15.44;96.46;101141.41;5078956;27;45333;-68
2024/03/18 04:38:28;;;;;;;;;9.00;9.00;;;;;15.44;96.45;101143.25;5075678;28;45565;-67
2024/03/18 04:40:54;;;;;;;;;8.00;8.00;;;;;15.43;96.53;101136.09;5078897;27;45609;-67
2024/03/18 04:43:19;;;;;;;;;9.25;9.00;;;;;15.46;96.35;101144.91;5078893;27;45615;-67
2024/03/18 04:45:44;;;;;;;;;10.50;10.00;;;;;15.37;96.46;101135.44;5066146;27;50712;-67
2024/03/18 04:48:11;;;;;;;;;8.50;8.00;;;;;15.42;96.56;101150.47;5079095;27;45385;-67
2024/03/18 04:50:37;;;;;;;;;11.00;9.00;;;;;15.40;96.58;101152.38;5078884;27;45499;-67
2024/03/18 04:53:02;;;;;;;;;12.25;11.00;;;;;15.35;96.33;101145.41;5078490;27;45304;-67
2024/03/18 04:55:28;;;;;;;;;11.50;11.50;;;;;15.41;96.69;101148.75;5078787;28;45421;-67
2024/03/18 04:57:55;;;;;;;;;12.00;12.00;;;;;15.40;96.49;101142.47;5083948;27;45288;-67
2024/03/18 05:00:22;;;;;;;;;9.75;9.75;;;;;15.37;96.64;101143.50;5078787;28;45539;-67
2024/03/18 05:02:47;;;;;;;;;11.75;11.75;;;;;15.37;96.63;101140.81;5072348;28;47656;-67
2024/03/18 05:05:14;;;;;;;;;13.75;13.00;;;;;15.34;96.23;101124.81;5072590;27;45426;-67
2024/03/18 05:07:40;;;;;;;;;14.00;13.00;;;;;15.46;96.34;101152.97;5077061;27;45516;-68
2024/03/18 05:10:06;;;;;;;;;13.50;13.00;;;;;15.41;96.16;101136.16;5078678;27;45309;-67
2024/03/18 05:12:31;;;;;;;;;11.00;11.00;;;;;15.45;96.44;101145.88;5081718;28;46319;-67
2024/03/18 05:15:00;;;;;;;;;15.25;15.25;;;;;15.36;96.21;101130.13;5079871;27;45874;-67
2024/03/18 05:17:26;;;;;;;;;14.00;13.75;;;;;15.39;96.21;101146.13;5081699;27;45519;-67
2024/03/18 05:19:52;;;;;;;;;11.50;11.50;;;;;15.41;96.08;101154.13;5080861;27;45348;-67
2024/03/18 05:22:18;;;;;;;;;11.50;10.50;;;;;15.46;96.21;101165.56;5081414;28;45390;-67
2024/03/18 05:24:43;;;;;;;;;18.50;16.25;;;;;15.47;96.33;101170.88;5081465;27;45451;-67
2024/03/18 05:27:19;;;;;;;;;17.50;14.75;;;;;15.45;96.27;101175.44;5079292;27;45463;-67
2024/03/18 05:29:45;;;;;;;;;16.75;14.75;;;;;15.40;96.36;101165.84;5070691;27;45525;-67
2024/03/18 05:32:12;;;;;;;;;15.25;15.25;;;;;15.42;96.14;101169.31;5080886;27;45368;-67
2024/03/18 05:34:39;;;;;;;;;15.00;13.50;;;;;15.36;96.14;101168.66;5080228;27;45322;-67
2024/03/18 05:37:06;;;;;;;;;15.75;14.25;;;;;15.31;95.85;101165.31;5079471;27;45450;-67
2024/03/18 05:39:33;;;;;;;;;15.75;15.00;;;;;15.38;95.72;101182.94;5079667;27;45747;-67
2024/03/18 05:41:59;;;;;;;;;14.00;14.00;;;;;15.31;95.86;101169.81;5080314;27;46569;-67
2024/03/18 05:44:25;;;;;;;;;17.75;15.75;;;;;15.34;95.71;101175.06;5081417;28;45477;-67
2024/03/18 05:46:50;;;;;;;;;15.25;14.75;;;;;15.38;95.25;101191.00;5081439;27;45520;-67
2024/03/18 05:49:16;;;;;;;;;16.25;14.25;;;;;15.37;95.45;101191.06;5081680;27;45322;-67
2024/03/18 05:51:41;;;;;;;;;16.50;16.50;;;;;15.37;95.49;101191.06;5078414;28;53334;-67
2024/03/18 05:54:07;;;;;;;;;15.00;14.75;;;;;15.32;95.21;101190.41;5070100;28;45362;-67
2024/03/18 05:56:32;;;;;;;;;13.00;12.00;;;;;15.29;95.06;101187.84;5081476;27;45747;-67
2024/03/18 05:58:57;;;;;;;;;18.00;16.50;;;;;15.27;94.83;101187.91;5086619;27;53613;-67
2024/03/18 06:01:23;;;;;;;;;14.50;14.00;;;;;15.27;94.88;101184.34;5081117;27;45339;-67
2024/03/18 06:03:48;;;;;;;;;14.75;14.25;;;;;15.25;95.10;101178.16;5080023;28;45431;-67
2024/03/18 06:06:14;;;;;;;;;14.50;13.00;;;;;15.34;94.61;101188.50;5081330;28;45596;-67
2024/03/18 06:08:39;;;;;;;;;15.25;14.00;;;;;15.23;94.30;101182.72;5078602;27;45595;-67
2024/03/18 06:11:05;;;;;;;;;16.50;15.50;;;;;15.11;94.03;101165.34;5081091;27;45477;-67
2024/03/18 06:13:31;;;;;;;;;14.50;14.50;;;;;15.23;94.31;101197.03;5080756;27;45496;-67
2024/03/18 06:15:57;;;;;;;;;15.00;14.25;;;;;15.25;94.15;101203.25;5080944;28;46855;-67
2024/03/18 06:18:23;;;;;;;;;21.00;18.00;;;;;15.26;94.27;101207.66;5079705;28;45627;-67
2024/03/18 06:20:53;;;;;;;;;15.25;14.00;;;;;15.22;94.12;101213.25;5080466;27;46974;-67
2024/03/18 06:23:22;;;;;;;;;15.75;15.75;;;;;15.19;94.06;101214.28;5080452;27;45435;-67
2024/03/18 06:26:02;;;;;;;;;16.00;15.50;;;;;15.20;94.08;101229.44;5076086;28;45588;-67
2024/03/18 06:28:30;;;;;;;;;16.25;15.00;;;;;15.22;94.26;101234.75;5073304;28;45465;-67
2024/03/18 06:30:56;;;;;;;;;18.50;16.50;;;;;15.10;94.39;101218.25;5079272;28;47224;-67
2024/03/18 06:33:23;;;;;;;;;19.75;15.25;;;;;15.18;94.27;101234.03;5080760;27;45583;-67
2024/03/18 06:35:49;;;;;;;;;12.75;12.75;;;;;15.18;93.79;101242.09;5080448;27;45473;-67
2024/03/18 06:38:15;;;;;;;;;12.50;12.50;;;;;15.16;93.84;101234.09;5078193;27;45563;-67
2024/03/18 06:40:41;;;;;;;;;13.75;12.75;;;;;15.08;93.65;101233.53;5065861;28;46949;-67
2024/03/18 06:43:08;;;;;;;;;11.75;11.00;;;;;15.11;93.77;101235.25;5078262;27;45413;-66
2024/03/18 06:45:37;;;;;;;;;9.25;9.25;;;;;15.11;93.43;101256.75;5078076;27;45588;-68
2024/03/18 06:48:04;;;;;;;;;10.50;10.00;;;;;15.06;93.32;101240.81;5075358;27;46937;-68
2024/03/18 06:50:35;;;;;;;;;13.50;12.00;;;;;15.13;93.23;101260.25;5081879;27;45766;-68
2024/03/18 06:53:00;;;;;;;;;11.25;10.25;;;;;15.09;93.43;101255.94;5062471;27;45490;-68
2024/03/18 06:55:33;;;;;;;;;9.00;9.00;;;;;15.08;93.25;101255.06;5073230;27;45490;-68
2024/03/18 06:58:00;;;;;;;;;15.25;13.00;;;;;15.08;93.22;101257.75;5076920;27;45348;-68
2024/03/18 07:00:26;;;;;;;;;11.50;11.00;;;;;15.06;93.38;101253.41;5079197;27;46160;-68
2024/03/18 07:02:52;;;;;;;;;10.00;10.00;;;;;14.91;93.09;101233.41;5077215;27;45374;-68
2024/03/18 07:05:17;;;;;;;;;10.00;9.75;;;;;15.06;93.23;101265.00;5076630;28;45555;-67
2024/03/18 07:07:43;;;;;;;;;10.50;10.25;;;;;15.05;92.81;101262.38;5077351;28;45629;-67
2024/03/18 07:10:09;;;;;;;;;14.25;11.50;;;;;15.11;92.88;101272.88;5061989;28;45529;-66
2024/03/18 07:12:35;;;;;;;;;11.75;9.00;;;;;15.03;93.08;101259.75;5072409;27;45486;-66
2024/03/18 07:15:01;;;;;;;;;13.50;10.75;;;;;15.02;93.02;101266.09;5063371;28;45409;-66
2024/03/18 07:17:26;;;;;;;;;10.00;8.00;;;;;15.10;92.29;101285.47;5060933;28;45242;-66
2024/03/18 07:19:52;;;;;;;;;8.50;8.50;;;;;14.99;92.26;101266.22;5075089;28;45324;-67
2024/03/18 07:22:18;;;;;;;;;8.75;8.75;;;;;14.86;92.46;101251.56;5077627;27;45488;-67
2024/03/18 07:24:43;;;;;;;;;13.75;11.00;;;;;15.06;92.29;101285.66;5079070;28;45448;-67
2024/03/18 07:27:09;;;;;;;;;7.75;7.00;;;;;14.96;92.61;101277.09;5078536;27;45295;-67
2024/03/18 07:29:35;;;;;;;;;10.00;9.50;;;;;15.08;92.42;101283.78;5076281;28;45787;-67
2024/03/18 07:32:01;;;;;;;;;10.00;9.50;;;;;14.92;92.41;101264.75;5076958;27;45468;-67
2024/03/18 07:34:26;;;;;;;;;7.00;7.00;;;;;15.06;92.27;101288.34;5076581;27;45458;-66
2024/03/18 07:36:52;;;;;;;;;10.75;10.75;;;;;15.08;92.43;101297.22;5073974;28;45609;-67
2024/03/18 07:39:19;;;;;;;;;5.00;5.00;;;;;15.10;91.87;101304.28;5077218;27;46651;-66
2024/03/18 07:41:44;;;;;;;;;7.00;7.00;;;;;15.11;91.66;101316.78;5078082;27;45577;-68
2024/03/18 07:44:10;;;;;;;;;4.75;4.75;;;;;14.99;91.69;101299.34;5077170;28;45433;-69
2024/03/18 07:46:36;;;;;;;;;7.75;5.00;;;;;15.08;91.25;101310.66;5079765;28;45542;-69
2024/03/18 07:49:01;;;;;;;;;7.00;7.00;;;;;15.12;91.28;101325.75;5079493;28;46322;-69
2024/03/18 07:51:27;;;;;;;;;6.25;6.25;;;;;15.09;91.20;101326.72;5078427;28;45286;-68
2024/03/18 07:53:52;;;;;;;;;7.75;6.50;;;;;15.13;90.95;101336.41;5078983;28;45512;-68
2024/03/18 07:56:17;;;;;;;;;7.25;6.00;;;;;15.15;90.75;101336.34;5079253;27;45695;-68
2024/03/18 07:58:43;;;;;;;;;7.00;5.75;;;;;15.10;90.56;101336.56;5084041;27;46281;-69
2024/03/18 08:01:11;;;;;;;;;2.75;2.75;;;;;15.06;90.87;101328.69;5078947;27;45294;-69
2024/03/18 08:03:37;;;;;;;;;7.75;5.25;;;;;15.16;90.06;101344.34;5079085;28;45413;-68
2024/03/18 08:06:08;;;;;;;;;4.25;4.00;;;;;15.18;90.21;101363.09;5074739;27;45434;-69
2024/03/18 08:08:34;;;;;;;;;7.25;4.00;;;;;15.11;90.11;101354.41;5078315;27;45577;-70
2024/03/18 08:10:59;;;;;;;;;5.50;4.50;;;;;15.22;90.09;101369.22;5072723;27;45441;-69
2024/03/18 08:13:24;;;;;;;;;4.75;4.75;;;;;15.22;89.63;101366.53;5078592;28;45543;-68
2024/03/18 08:15:50;;;;;;;;;6.75;4.75;;;;;15.20;89.91;101361.22;5077234;27;46451;-68
2024/03/18 08:18:15;;;;;;;;;3.00;3.00;;;;;15.17;90.19;101354.19;5078415;28;46016;-68
2024/03/18 08:20:41;;;;;;;;;4.75;4.25;;;;;15.29;89.79;101376.97;5075831;28;67235;-67
2024/03/18 08:23:07;;;;;;;;;5.50;3.50;;;;;15.31;89.64;101376.94;5078248;28;45352;-73
2024/03/18 08:25:33;;;;;;;;;5.00;4.00;;;;;15.25;89.21;101366.41;5076555;28;46198;-69
2024/03/18 08:27:58;;;;;;;;;4.75;3.50;;;;;15.36;88.93;101385.66;5075090;28;46067;-71
2024/03/18 08:30:23;;;;;;;;;4.25;3.00;;;;;15.28;88.52;101385.97;5076810;27;45379;-69
2024/03/18 08:32:49;;;;;;;;;5.25;3.75;;;;;15.32;88.32;101387.63;5076056;28;45527;-69
2024/03/18 08:35:14;;;;;;;;;4.00;3.00;;;;;15.35;88.41;101397.34;5076704;28;54899;-69
2024/03/18 08:37:42;;;;;;;;;4.25;3.50;;;;;15.35;88.34;101389.28;5072894;27;45883;-69
2024/03/18 08:40:07;;;;;;;;;3.75;3.75;;;;;15.36;88.01;101399.13;5074686;27;45715;-69
2024/03/18 08:42:33;;;;;;;;;3.50;3.50;;;;;15.31;87.82;101387.69;5077947;27;45370;-70
2024/03/18 08:44:58;;;;;;;;;2.50;2.00;;;;;15.35;87.61;101392.88;5080354;27;45306;-69
2024/03/18 08:47:23;;;;;;;;;2.50;2.50;;;;;15.39;87.56;101396.31;5084429;27;51406;-69
2024/03/18 08:49:49;;;;;;;;;3.00;3.00;;;;;15.40;87.17;101405.25;5078363;28;45487;-69
2024/03/18 08:52:15;;;;;;;;;4.25;2.75;;;;;15.40;87.55;101405.25;5081005;27;45413;-69
2024/03/18 08:54:40;;;;;;;;;3.25;3.00;;;;;15.30;87.24;101385.91;5080614;27;45679;-68
2024/03/18 08:57:06;;;;;;;;;5.00;4.00;;;;;15.37;87.03;101396.38;5078685;27;45600;-69
2024/03/18 08:59:32;;;;;;;;;4.50;3.25;;;;;15.45;87.27;101411.31;5090846;27;45528;-68
2024/03/18 09:01:57;;;;;;;;;3.75;3.25;;;;;15.41;87.44;101393.56;5079969;27;45372;-68
2024/03/18 09:04:22;;;;;;;;;7.25;3.50;;;;;15.52;87.42;101413.69;5078428;27;48307;-68
2024/03/18 09:06:48;;;;;;;;;4.00;4.00;;;;;15.54;87.12;101416.31;5079222;27;45771;-68
2024/03/18 09:09:13;;;;;;;;;4.25;3.00;;;;;15.53;87.02;101395.72;5075826;27;45485;-68
2024/03/18 09:11:38;;;;;;;;;4.25;3.00;;;;;15.63;87.22;101420.41;5080282;27;45443;-69
2024/03/18 09:14:05;;;;;;;;;4.25;4.25;;;;;15.61;87.28;101412.41;5079030;27;45344;-71
2024/03/18 09:16:31;;;;;;;;;5.00;5.00;;;;;15.68;87.03;101415.72;5078737;27;45370;-69
2024/03/18 09:18:57;;;;;;;;;4.75;4.00;;;;;15.69;86.54;101417.47;5078832;27;45691;-71
2024/03/18 09:21:22;;;;;;;;;6.00;4.75;;;;;15.63;86.44;101410.53;5079417;27;45466;-68
2024/03/18 09:23:49;;;;;;;;;4.00;4.00;;;;;15.69;86.28;101414.78;5081698;27;47157;-72
2024/03/18 09:26:15;;;;;;;;;7.50;5.75;;;;;15.72;86.16;101417.34;5077955;27;45501;-71
2024/03/18 09:28:40;;;;;;;;;5.25;5.00;;;;;15.69;85.63;101412.09;5080155;27;45518;-73
2024/03/18 09:31:06;;;;;;;;;5.25;3.00;;;;;15.74;85.38;101412.75;5080231;28;45453;-73
2024/03/18 09:33:31;;;;;;;;;6.00;3.25;;;;;15.72;85.42;101398.50;5080378;27;45479;-73
2024/03/18 09:35:56;;;;;;;;;5.00;5.00;;;;;15.80;85.43;101420.59;5079576;27;45366;-73
2024/03/18 09:38:22;;;;;;;;;7.75;5.00;;;;;15.84;85.00;101419.53;5078888;27;45389;-70
2024/03/18 09:40:47;;;;;;;;;7.75;5.00;;;;;15.85;85.08;101409.63;5077573;27;45632;-69
2024/03/18 09:43:13;;;;;;;;;6.00;4.00;;;;;15.88;84.73;101407.66;5079437;27;45444;-69
2024/03/18 09:45:38;;;;;;;;;5.25;4.25;;;;;15.88;84.25;101412.19;5076182;27;45619;-69
2024/03/18 09:48:05;;;;;;;;;4.00;4.00;;;;;15.95;84.64;101415.47;5078889;27;45367;-69
2024/03/18 09:50:31;;;;;;;;;6.00;5.00;;;;;15.97;84.12;101418.97;5078855;27;45398;-69
2024/03/18 09:52:57;;;;;;;;;5.00;4.00;;;;;15.98;84.21;101418.91;5077781;27;45538;-69
2024/03/18 09:55:23;;;;;;;;;4.25;4.25;;;;;16.05;84.01;101422.22;5077914;27;47382;-70
2024/03/18 09:57:50;;;;;;;;;7.75;6.75;;;;;16.08;83.58;101422.06;5080075;27;45814;-70
2024/03/18 10:00:17;;;;;;;;;9.00;9.00;;;;;16.10;83.64;101425.56;5078588;27;45470;-69
2024/03/18 10:02:43;;;;;;;;;6.50;5.50;;;;;16.12;83.54;101420.97;5078622;27;45557;-69
2024/03/18 10:05:11;;;;;;;;;3.25;3.25;;;;;16.15;83.00;101419.97;5075877;27;46481;-71
2024/03/18 10:07:38;;;;;;;;;5.75;5.75;;;;;16.19;82.97;101421.56;5078097;27;45910;-70
2024/03/18 10:10:04;;;;;;;;;7.00;7.00;;;;;16.22;82.90;101418.75;5077623;27;45485;-70
2024/03/18 10:12:30;;;;;;;;;6.00;4.25;;;;;16.26;82.69;101423.06;5077296;27;45791;-70
2024/03/18 10:14:55;;;;;;;;;9.75;6.00;;;;;16.29;82.59;101425.63;5076159;27;45706;-70
2024/03/18 10:17:20;;;;;;;;;4.50;4.50;;;;;16.30;82.29;101428.25;5078458;27;45698;-70
2024/03/18 10:19:47;;;;;;;;;6.25;4.50;;;;;16.33;82.52;101426.38;5079023;27;48406;-70
2024/03/18 10:22:13;;;;;;;;;4.50;4.25;;;;;16.33;82.25;101421.84;5078444;27;45511;-70
2024/03/18 10:24:40;;;;;;;;;4.00;4.00;;;;;16.32;81.41;101414.69;5076470;27;45988;-70
2024/03/18 10:27:07;;;;;;;;;3.75;3.25;;;;;16.35;81.44;101422.63;5079397;27;45573;-70
2024/03/18 10:29:32;;;;;;;;;3.75;3.75;;;;;16.41;81.32;101426.88;5079215;27;45606;-70
2024/03/18 10:31:58;;;;;;;;;6.50;4.50;;;;;16.44;81.11;101437.53;5078377;27;48287;-70
2024/03/18 10:34:23;;;;;;;;;3.00;3.00;;;;;16.46;80.23;101431.09;5078386;27;46596;-70
2024/03/18 10:36:58;;;;;;;;;5.50;2.25;;;;;16.46;79.48;101422.16;5075313;27;45430;-70
2024/03/18 10:39:46;;;;;;;;;5.50;3.25;;;;;16.49;79.46;101419.31;5077834;27;45435;-70
2024/03/18 10:42:15;;;;;;;;;3.25;2.50;;;;;16.52;79.11;101421.00;5080976;27;45473;-70
2024/03/18 10:44:51;;;;;;;;;4.00;2.00;;;;;16.52;78.40;101419.16;5076595;27;46065;-70
2024/03/18 10:47:18;;;;;;;;;4.50;3.00;;;;;16.49;77.92;101408.56;5070352;27;45527;-70
2024/03/18 10:49:43;;;;;;;;;1.00;1.00;;;;;16.51;78.54;101420.13;5071290;27;45397;-70
2024/03/18 10:52:11;;;;;;;;;2.00;2.00;;;;;16.54;78.18;101422.69;5077828;27;45386;-70
2024/03/18 10:54:36;;;;;;;;;2.75;2.50;;;;;16.49;78.01;101413.94;5076208;27;46218;-70
2024/03/18 10:57:01;;;;;;;;;2.00;2.00;;;;;16.55;77.79;101418.16;5077021;27;45803;-70
2024/03/18 10:59:27;;;;;;;;;2.50;1.50;;;;;16.56;78.29;101418.09;5077057;27;45460;-71
2024/03/18 11:01:52;;;;;;;;;4.75;2.75;;;;;16.57;78.60;101411.75;5076149;27;45492;-71
2024/03/18 11:04:23;;;;;;;;;3.75;2.00;;;;;16.57;77.77;101409.06;5073208;27;45488;-71
2024/03/18 11:06:55;;;;;;;;;2.50;2.50;;;;;16.56;77.02;101407.31;5076341;27;45567;-70
2024/03/18 11:09:22;;;;;;;;;4.25;2.00;;;;;16.53;77.55;101402.06;5076321;27;45280;-64
2024/03/18 11:11:48;;;;;;;;;3.00;3.00;;;;;16.60;78.22;101408.91;5075210;27;45752;-70